YPPF weather

Adelaide Parafield Airport
Adelaide, South Australia, Australia

Public forecast

Using degrees Celsius for public forecast. Weather courtesy of forecast.io.

METAR (pilot weather report)

Closest report is Adelaide International Airport, 10.4 nm (19.3 km) SSW. Retrieved 2019/02/17 13:00 UTC (1 hour ago):

YPAD 171300Z 08001KT CAVOK 26/12 Q1005 NOSIG

TAF (pilot weather forecast)

Closest forecast is Adelaide International Airport, 10.4 nm (19.3 km) SSW. Retrieved 2019/02/17 12:00 UTC (2 hours ago):

TAF YPAD 171100Z 1712/1818 15008KT CAVOK FM171800 18012KT 9999 -SHRA FEW010 FM172300 18012KT 9999 NSW BKN025 FM180200 22018KT 9999 FEW030 FM181000 19012KT CAVOK